Time;durP1;ratioP1;P1;durP2;ratioP2;P2;SDS_P1;SDS_P2;PMS_P1;PMS_P2;Temp;Humidity;BMP_temperature;BMP_pressure;BME280_temperature;BME280_humidity;BME280_pressure;Samples;Min_cycle;Max_cycle;Signal;HPM_P1;HPM_P2
2023/09/17 00:00:11;;;;;;;6.78;5.85;;;;;;;;;;5071932;28;20081;-60
2023/09/17 00:02:36;;;;;;;6.65;5.85;;;;;;;;;;5067685;28;20037;-61
2023/09/17 00:05:03;;;;;;;9.87;7.90;;;;;;;;;;5039102;28;20494;-61
2023/09/17 00:07:28;;;;;;;13.35;7.50;;;;;;;;;;5069697;28;20551;-61
2023/09/17 00:09:53;;;;;;;8.53;7.73;;;;;;;;;;5072333;28;20063;-61
2023/09/17 00:12:19;;;;;;;9.02;8.10;;;;;;;;;;5071539;28;20487;-60
2023/09/17 00:14:45;;;;;;;8.57;7.78;;;;;;;;;;5071442;28;20020;-61
2023/09/17 00:17:11;;;;;;;9.02;8.10;;;;;;;;;;5070826;28;20040;-61
2023/09/17 00:19:36;;;;;;;12.57;7.78;;;;;;;;;;5072882;28;20056;-60
2023/09/17 00:22:03;;;;;;;11.85;8.95;;;;;;;;;;5071528;28;20089;-73
2023/09/17 00:24:28;;;;;;;9.68;8.18;;;;;;;;;;5072332;28;20031;-61
2023/09/17 00:26:54;;;;;;;10.23;8.80;;;;;;;;;;5070996;28;20033;-60
2023/09/17 00:29:19;;;;;;;9.15;8.23;;;;;;;;;;5072908;28;20581;-60
2023/09/17 00:31:44;;;;;;;11.17;9.37;;;;;;;;;;5069978;28;20035;-60
2023/09/17 00:34:09;;;;;;;10.15;9.15;;;;;;;;;;5072733;28;20454;-60
2023/09/17 00:36:35;;;;;;;9.43;8.35;;;;;;;;;;5070911;28;20456;-60
2023/09/17 00:39:00;;;;;;;10.97;9.00;;;;;;;;;;5072174;28;20044;-60
2023/09/17 00:41:26;;;;;;;9.23;8.33;;;;;;;;;;5071083;28;20571;-60
2023/09/17 00:43:51;;;;;;;12.98;10.88;;;;;;;;;;5071720;28;20016;-60
2023/09/17 00:46:16;;;;;;;13.80;10.85;;;;;;;;;;5069693;28;20095;-60
2023/09/17 00:48:41;;;;;;;13.57;10.03;;;;;;;;;;5072341;28;20074;-60
2023/09/17 00:51:07;;;;;;;11.82;10.57;;;;;;;;;;5070196;28;20037;-60
2023/09/17 00:53:32;;;;;;;10.60;9.53;;;;;;;;;;5068711;28;20108;-60
2023/09/17 00:55:58;;;;;;;11.60;9.70;;;;;;;;;;5042866;28;20562;-59
2023/09/17 00:58:23;;;;;;;14.68;10.15;;;;;;;;;;5071941;28;20477;-60
2023/09/17 01:00:49;;;;;;;17.83;10.48;;;;;;;;;;5069822;28;20036;-60
2023/09/17 01:03:14;;;;;;;10.13;9.13;;;;;;;;;;5072496;28;20025;-60
2023/09/17 01:05:41;;;;;;;10.43;8.63;;;;;;;;;;5070251;28;20033;-60
2023/09/17 01:08:07;;;;;;;13.80;11.20;;;;;;;;;;5071465;28;20435;-60
2023/09/17 01:10:33;;;;;;;12.60;11.23;;;;;;;;;;5069705;28;20033;-60
2023/09/17 01:12:59;;;;;;;15.25;12.57;;;;;;;;;;5071584;28;20025;-60
2023/09/17 01:15:27;;;;;;;15.68;13.55;;;;;;;;;;5070194;28;20103;-60
2023/09/17 01:17:53;;;;;;;13.57;11.63;;;;;;;;;;5071661;28;20020;-60
2023/09/17 01:20:29;;;;;;;15.30;13.40;;;;;;;;;;5069907;28;20360;-60
2023/09/17 01:23:10;;;;;;;19.60;16.55;;;;;;;;;;5052918;28;20025;-60
2023/09/17 01:25:40;;;;;;;16.13;14.43;;;;;;;;;;5034483;28;20519;-60
2023/09/17 01:28:06;;;;;;;18.23;16.35;;;;;;;;;;5070232;28;20021;-60
2023/09/17 01:30:31;;;;;;;20.20;16.80;;;;;;;;;;5069285;28;20043;-60
2023/09/17 01:32:57;;;;;;;25.75;17.88;;;;;;;;;;5071129;28;20084;-62
2023/09/17 01:35:22;;;;;;;25.17;15.37;;;;;;;;;;5067563;28;20399;-61
2023/09/17 01:37:51;;;;;;;21.02;17.42;;;;;;;;;;5051148;28;20021;-66
2023/09/17 01:40:17;;;;;;;29.05;19.95;;;;;;;;;;5050694;28;20045;-60
2023/09/17 01:42:44;;;;;;;25.33;20.27;;;;;;;;;;5067744;28;20024;-60
2023/09/17 01:45:12;;;;;;;22.67;20.30;;;;;;;;;;5052009;28;20029;-60
2023/09/17 01:47:37;;;;;;;27.75;23.00;;;;;;;;;;5050791;28;20480;-60
2023/09/17 01:50:04;;;;;;;26.00;22.13;;;;;;;;;;5051139;28;20024;-60
2023/09/17 01:52:32;;;;;;;30.42;21.88;;;;;;;;;;5067807;28;20044;-60
2023/09/17 01:54:58;;;;;;;23.37;20.93;;;;;;;;;;5071503;28;20089;-60
2023/09/17 01:57:23;;;;;;;23.55;21.08;;;;;;;;;;5069037;28;20656;-60
2023/09/17 01:59:48;;;;;;;23.08;20.40;;;;;;;;;;5070299;28;20376;-60
2023/09/17 02:02:13;;;;;;;24.97;20.30;;;;;;;;;;5069172;28;20064;-60
2023/09/17 02:04:38;;;;;;;28.02;22.38;;;;;;;;;;5070780;28;20016;-60
2023/09/17 02:07:04;;;;;;;25.63;22.67;;;;;;;;;;5069266;28;20067;-60
2023/09/17 02:09:29;;;;;;;26.70;23.92;;;;;;;;;;5050703;28;20029;-60
2023/09/17 02:11:54;;;;;;;23.42;20.58;;;;;;;;;;5063852;28;20077;-60
2023/09/17 02:14:19;;;;;;;25.83;20.70;;;;;;;;;;5070626;28;20024;-61
2023/09/17 02:16:45;;;;;;;28.20;22.67;;;;;;;;;;5069146;28;20047;-61
2023/09/17 02:19:10;;;;;;;27.60;23.83;;;;;;;;;;5070228;28;20119;-60
2023/09/17 02:21:35;;;;;;;28.08;23.95;;;;;;;;;;5068483;28;20464;-61
2023/09/17 02:24:01;;;;;;;25.50;23.10;;;;;;;;;;5070652;28;20165;-60
2023/09/17 02:26:26;;;;;;;26.65;23.95;;;;;;;;;;5069132;28;20098;-62
2023/09/17 02:28:51;;;;;;;28.67;23.93;;;;;;;;;;5069926;28;20021;-60
2023/09/17 02:31:16;;;;;;;28.40;25.33;;;;;;;;;;5068618;28;20036;-60
2023/09/17 02:33:41;;;;;;;37.80;26.67;;;;;;;;;;5070363;28;20024;-60
2023/09/17 02:36:07;;;;;;;27.73;24.80;;;;;;;;;;5059207;28;20385;-60
2023/09/17 02:38:33;;;;;;;29.83;25.15;;;;;;;;;;5049857;28;20045;-60
2023/09/17 02:40:58;;;;;;;28.52;25.58;;;;;;;;;;5048932;28;20033;-60
2023/09/17 02:43:23;;;;;;;32.97;28.23;;;;;;;;;;5069429;28;20021;-60
2023/09/17 02:45:49;;;;;;;28.77;25.63;;;;;;;;;;5068218;28;20537;-72
2023/09/17 02:48:15;;;;;;;32.33;26.42;;;;;;;;;;5070289;28;20108;-60
2023/09/17 02:50:40;;;;;;;34.03;27.35;;;;;;;;;;5068274;28;20055;-60
2023/09/17 02:53:08;;;;;;;33.33;28.13;;;;;;;;;;5069385;28;20115;-61
2023/09/17 02:55:36;;;;;;;32.67;28.13;;;;;;;;;;5068192;28;20043;-61
2023/09/17 02:58:04;;;;;;;32.42;27.95;;;;;;;;;;5070051;28;20028;-61
2023/09/17 03:00:32;;;;;;;39.40;27.92;;;;;;;;;;5068617;28;20024;-61
2023/09/17 03:02:57;;;;;;;;;;;;;;;;;;5069303;28;20025;-61
2023/09/17 03:05:23;;;;;;;27.90;23.33;;;;;;;;;;5033603;28;19917;-62
2023/09/17 03:07:49;;;;;;;33.38;27.55;;;;;;;;;;5061586;28;20017;-61
2023/09/17 03:10:18;;;;;;;32.25;25.77;;;;;;;;;;5073005;28;20427;-60
2023/09/17 03:12:43;;;;;;;31.98;27.60;;;;;;;;;;5076039;28;20476;-61
2023/09/17 03:15:09;;;;;;;28.13;25.13;;;;;;;;;;5076436;28;20030;-61
2023/09/17 03:17:37;;;;;;;33.20;24.85;;;;;;;;;;5074958;28;20049;-62
2023/09/17 03:20:13;;;;;;;32.22;25.45;;;;;;;;;;5076882;28;20032;-61
2023/09/17 03:22:38;;;;;;;32.90;25.33;;;;;;;;;;5074577;28;20491;-62
2023/09/17 03:25:05;;;;;;;30.40;26.60;;;;;;;;;;5076363;28;20069;-62
2023/09/17 03:27:32;;;;;;;28.85;24.77;;;;;;;;;;5074940;28;20158;-62
2023/09/17 03:29:57;;;;;;;30.05;26.90;;;;;;;;;;5075967;28;20025;-61
2023/09/17 03:32:22;;;;;;;29.40;25.08;;;;;;;;;;5074343;28;20507;-61
2023/09/17 03:34:47;;;;;;;35.00;28.35;;;;;;;;;;5076434;28;20055;-60
2023/09/17 03:37:13;;;;;;;29.10;25.92;;;;;;;;;;5074658;28;20032;-60
2023/09/17 03:39:38;;;;;;;34.70;26.35;;;;;;;;;;5075881;28;20368;-60
2023/09/17 03:42:03;;;;;;;34.65;28.05;;;;;;;;;;5068486;28;20056;-62
2023/09/17 03:44:29;;;;;;;32.42;26.92;;;;;;;;;;5056094;28;20029;-61
2023/09/17 03:46:54;;;;;;;36.33;27.88;;;;;;;;;;5062869;28;20414;-58
2023/09/17 03:49:23;;;;;;;33.50;26.10;;;;;;;;;;5076493;28;20036;-61
2023/09/17 03:51:48;;;;;;;35.50;30.02;;;;;;;;;;5074115;28;20115;-60
2023/09/17 03:54:13;;;;;;;36.73;29.83;;;;;;;;;;5076171;28;20162;-60
2023/09/17 03:56:39;;;;;;;36.05;27.55;;;;;;;;;;5073122;28;20047;-60
2023/09/17 03:59:04;;;;;;;34.58;29.67;;;;;;;;;;5075987;28;20020;-60
2023/09/17 04:01:29;;;;;;;36.07;29.77;;;;;;;;;;5045486;28;20402;-60
2023/09/17 04:03:54;;;;;;;34.45;28.90;;;;;;;;;;5075964;28;20029;-60
2023/09/17 04:06:20;;;;;;;36.42;29.83;;;;;;;;;;5074643;28;20037;-61
2023/09/17 04:08:45;;;;;;;37.67;30.60;;;;;;;;;;5075873;28;20024;-60
2023/09/17 04:11:15;;;;;;;33.67;28.00;;;;;;;;;;5074407;28;20028;-60
2023/09/17 04:13:40;;;;;;;38.50;30.42;;;;;;;;;;5075888;28;20543;-60
2023/09/17 04:16:07;;;;;;;38.90;29.73;;;;;;;;;;5074908;28;20095;-60
2023/09/17 04:18:32;;;;;;;37.90;29.42;;;;;;;;;;5075663;28;20818;-60
2023/09/17 04:20:57;;;;;;;35.15;27.30;;;;;;;;;;5072892;28;20016;-59
2023/09/17 04:23:24;;;;;;;35.50;28.05;;;;;;;;;;5072559;28;20017;-61
2023/09/17 04:25:49;;;;;;;31.13;26.27;;;;;;;;;;5072877;28;20029;-60
2023/09/17 04:28:15;;;;;;;34.92;27.95;;;;;;;;;;5054580;28;20390;-60
2023/09/17 04:30:40;;;;;;;35.78;28.08;;;;;;;;;;5031101;28;20018;-60
2023/09/17 04:33:05;;;;;;;33.55;25.75;;;;;;;;;;5049053;28;20033;-61
2023/09/17 04:35:30;;;;;;;34.22;28.20;;;;;;;;;;5052217;28;20465;-61
2023/09/17 04:37:55;;;;;;;31.97;26.57;;;;;;;;;;5058737;28;20044;-60
2023/09/17 04:40:24;;;;;;;37.08;27.63;;;;;;;;;;5072310;28;20083;-61
2023/09/17 04:42:49;;;;;;;31.95;27.60;;;;;;;;;;5070075;28;20142;-60
2023/09/17 04:45:31;;;;;;;32.57;25.03;;;;;;;;;;5072363;28;20430;-60
2023/09/17 04:47:56;;;;;;;31.55;25.83;;;;;;;;;;5070600;28;20512;-60
2023/09/17 04:50:21;;;;;;;28.13;23.88;;;;;;;;;;5071984;28;20070;-60
2023/09/17 04:52:46;;;;;;;28.97;25.13;;;;;;;;;;5070183;28;20283;-60
2023/09/17 04:55:12;;;;;;;28.63;25.55;;;;;;;;;;5072351;28;20442;-60
2023/09/17 04:57:37;;;;;;;28.75;23.95;;;;;;;;;;5069791;28;20423;-61
2023/09/17 05:00:10;;;;;;;29.70;23.08;;;;;;;;;;5072179;28;20045;-64
2023/09/17 05:02:35;;;;;;;26.98;23.95;;;;;;;;;;5069997;28;20567;-62
2023/09/17 05:05:00;;;;;;;30.40;24.08;;;;;;;;;;5071901;28;20150;-61
2023/09/17 05:07:26;;;;;;;28.77;22.93;;;;;;;;;;5070503;28;20055;-62
2023/09/17 05:09:51;;;;;;;27.08;21.63;;;;;;;;;;5071505;28;20409;-59
2023/09/17 05:12:16;;;;;;;25.73;23.13;;;;;;;;;;5070112;28;20404;-60
2023/09/17 05:14:41;;;;;;;25.50;23.00;;;;;;;;;;5071741;28;20422;-60
2023/09/17 05:17:06;;;;;;;27.10;22.57;;;;;;;;;;5070134;28;20115;-59
2023/09/17 05:19:31;;;;;;;30.33;23.93;;;;;;;;;;5070798;28;20029;-58
2023/09/17 05:21:57;;;;;;;26.55;23.67;;;;;;;;;;5070022;28;21211;-59
2023/09/17 05:24:22;;;;;;;24.98;21.73;;;;;;;;;;5070971;28;20487;-59
2023/09/17 05:26:47;;;;;;;26.93;23.93;;;;;;;;;;5069784;28;20040;-59
2023/09/17 05:29:16;;;;;;;28.13;21.87;;;;;;;;;;5071135;28;20067;-59
2023/09/17 05:31:41;;;;;;;24.17;20.70;;;;;;;;;;5069588;28;20507;-59
2023/09/17 05:34:06;;;;;;;35.70;23.43;;;;;;;;;;5070872;28;20020;-60
2023/09/17 05:36:31;;;;;;;27.92;23.85;;;;;;;;;;5069806;28;20086;-58
2023/09/17 05:38:57;;;;;;;25.73;21.77;;;;;;;;;;5069932;28;20483;-60
2023/09/17 05:41:22;;;;;;;26.85;23.35;;;;;;;;;;5069644;28;20058;-60
2023/09/17 05:43:48;;;;;;;24.57;21.60;;;;;;;;;;5070337;28;20415;-60
2023/09/17 05:46:13;;;;;;;26.85;21.58;;;;;;;;;;5059538;28;21024;-62
2023/09/17 05:48:39;;;;;;;26.30;22.10;;;;;;;;;;5070845;28;20052;-60
2023/09/17 05:51:04;;;;;;;27.02;21.52;;;;;;;;;;5069195;28;20036;-60
2023/09/17 05:53:31;;;;;;;25.08;22.48;;;;;;;;;;5071233;28;20028;-60
2023/09/17 05:55:56;;;;;;;24.90;22.23;;;;;;;;;;5069204;28;20037;-60
2023/09/17 05:58:21;;;;;;;22.83;18.83;;;;;;;;;;5069487;28;20035;-57
2023/09/17 06:00:47;;;;;;;21.97;19.63;;;;;;;;;;5068505;28;20047;-58
2023/09/17 06:03:12;;;;;;;23.52;21.10;;;;;;;;;;5071021;28;20048;-58
2023/09/17 06:05:37;;;;;;;21.87;19.63;;;;;;;;;;5066542;28;20432;-58
2023/09/17 06:08:02;;;;;;;27.35;21.92;;;;;;;;;;5068556;28;20013;-58
2023/09/17 06:10:28;;;;;;;24.42;21.83;;;;;;;;;;5068698;28;20507;-58
2023/09/17 06:12:53;;;;;;;25.73;22.77;;;;;;;;;;5069599;28;20621;-58
2023/09/17 06:15:18;;;;;;;32.28;24.50;;;;;;;;;;5068110;28;20104;-57
2023/09/17 06:17:43;;;;;;;28.23;25.23;;;;;;;;;;5069652;28;20095;-61
2023/09/17 06:20:09;;;;;;;33.25;27.02;;;;;;;;;;5066843;28;20113;-62
2023/09/17 06:22:34;;;;;;;32.97;28.33;;;;;;;;;;5068755;28;20017;-57
2023/09/17 06:24:59;;;;;;;35.53;27.98;;;;;;;;;;5069812;28;20028;-58
2023/09/17 06:27:25;;;;;;;36.55;31.60;;;;;;;;;;5063608;28;20047;-58
2023/09/17 06:29:50;;;;;;;43.25;33.70;;;;;;;;;;5064362;28;20079;-57
2023/09/17 06:32:15;;;;;;;37.40;29.53;;;;;;;;;;5067759;28;20040;-57
2023/09/17 06:34:41;;;;;;;30.67;26.00;;;;;;;;;;5068645;28;20434;-58
2023/09/17 06:37:06;;;;;;;33.85;27.40;;;;;;;;;;5066638;28;20499;-57
2023/09/17 06:39:31;;;;;;;36.08;28.63;;;;;;;;;;5069300;28;20121;-58
2023/09/17 06:41:57;;;;;;;30.17;26.90;;;;;;;;;;5067137;28;20041;-57
2023/09/17 06:44:23;;;;;;;30.97;26.17;;;;;;;;;;5068139;28;20107;-58
2023/09/17 06:46:48;;;;;;;37.97;28.63;;;;;;;;;;5067047;28;20508;-57
2023/09/17 06:49:13;;;;;;;32.40;28.70;;;;;;;;;;5068551;28;20021;-58
2023/09/17 06:51:38;;;;;;;28.93;25.90;;;;;;;;;;5066262;28;20067;-57
2023/09/17 06:54:04;;;;;;;41.72;33.60;;;;;;;;;;5066779;28;20030;-57
2023/09/17 06:56:29;;;;;;;40.38;30.13;;;;;;;;;;5067279;28;20526;-57
2023/09/17 06:58:55;;;;;;;50.03;29.95;;;;;;;;;;5067835;28;20021;-57
2023/09/17 07:01:20;;;;;;;38.88;31.50;;;;;;;;;;5067884;28;20118;-57
2023/09/17 07:03:45;;;;;;;38.00;29.88;;;;;;;;;;5067735;28;20111;-57
2023/09/17 07:06:10;;;;;;;41.08;33.38;;;;;;;;;;5066699;28;20036;-57
2023/09/17 07:08:35;;;;;;;41.22;31.10;;;;;;;;;;5069191;28;20016;-57
2023/09/17 07:11:00;;;;;;;42.13;35.60;;;;;;;;;;5066840;28;20059;-57
2023/09/17 07:13:25;;;;;;;48.40;35.17;;;;;;;;;;5068547;28;20029;-57
2023/09/17 07:15:51;;;;;;;40.57;32.20;;;;;;;;;;5067317;28;20106;-58
2023/09/17 07:18:16;;;;;;;40.75;34.05;;;;;;;;;;5068647;28;20017;-57
2023/09/17 07:20:41;;;;;;;44.65;33.95;;;;;;;;;;5066651;28;20403;-58
2023/09/17 07:23:07;;;;;;;44.53;38.03;;;;;;;;;;5068817;28;20020;-58
2023/09/17 07:25:33;;;;;;;46.30;36.83;;;;;;;;;;5066972;28;20078;-68
2023/09/17 07:28:04;;;;;;;40.28;35.83;;;;;;;;;;5069005;28;20016;-58
2023/09/17 07:30:31;;;;;;;48.80;37.67;;;;;;;;;;5047534;28;20047;-57
2023/09/17 07:32:56;;;;;;;41.03;36.17;;;;;;;;;;5056915;28;20020;-74
2023/09/17 07:35:21;;;;;;;41.88;33.92;;;;;;;;;;5064649;28;20107;-58
2023/09/17 07:37:47;;;;;;;44.77;37.73;;;;;;;;;;5048065;28;20060;-57
2023/09/17 07:40:12;;;;;;;43.87;36.60;;;;;;;;;;5048312;28;20124;-57
2023/09/17 07:42:37;;;;;;;46.50;38.23;;;;;;;;;;5068457;28;20112;-59
2023/09/17 07:45:02;;;;;;;44.65;35.45;;;;;;;;;;5066933;28;20020;-54
2023/09/17 07:47:28;;;;;;;39.15;34.60;;;;;;;;;;5068255;28;20020;-57
2023/09/17 07:49:53;;;;;;;42.53;35.80;;;;;;;;;;5068952;28;20039;-57
2023/09/17 07:52:18;;;;;;;45.42;38.00;;;;;;;;;;5065982;28;20040;-57
2023/09/17 07:54:43;;;;;;;44.13;35.90;;;;;;;;;;5068142;28;20817;-57
2023/09/17 07:57:11;;;;;;;41.35;35.25;;;;;;;;;;5070222;28;20129;-58
2023/09/17 07:59:36;;;;;;;44.45;36.70;;;;;;;;;;5071925;28;20025;-64
2023/09/17 08:02:03;;;;;;;46.93;35.90;;;;;;;;;;5068991;28;20025;-57
2023/09/17 08:04:28;;;;;;;45.80;35.40;;;;;;;;;;5053672;28;20116;-57
2023/09/17 08:06:53;;;;;;;41.63;35.65;;;;;;;;;;5067480;28;20551;-57
2023/09/17 08:09:18;;;;;;;43.53;36.53;;;;;;;;;;5072710;28;20085;-74
2023/09/17 08:11:44;;;;;;;44.30;36.75;;;;;;;;;;5055948;28;20136;-57
2023/09/17 08:14:09;;;;;;;41.03;36.23;;;;;;;;;;5055533;28;20037;-58
2023/09/17 08:16:35;;;;;;;41.47;36.90;;;;;;;;;;5063768;28;20488;-57
2023/09/17 08:19:00;;;;;;;45.63;35.80;;;;;;;;;;5072403;28;20024;-57
2023/09/17 08:21:25;;;;;;;41.03;35.83;;;;;;;;;;5070192;28;20395;-57
2023/09/17 08:23:50;;;;;;;40.23;33.33;;;;;;;;;;5057565;28;20443;-57
2023/09/17 08:26:16;;;;;;;41.25;34.40;;;;;;;;;;5061180;28;20094;-57
2023/09/17 08:28:42;;;;;;;38.17;34.13;;;;;;;;;;5067995;28;20123;-58
2023/09/17 08:31:07;;;;;;;47.92;33.70;;;;;;;;;;5060255;28;20112;-57
2023/09/17 08:33:32;;;;;;;37.13;33.27;;;;;;;;;;5051039;28;20074;-61
2023/09/17 08:35:57;;;;;;;36.07;30.23;;;;;;;;;;5049585;28;20455;-58
2023/09/17 08:38:22;;;;;;;36.55;31.20;;;;;;;;;;5051619;28;20422;-58
2023/09/17 08:40:48;;;;;;;36.37;32.20;;;;;;;;;;5057433;28;20047;-57
2023/09/17 08:43:14;;;;;;;37.28;29.98;;;;;;;;;;5037175;28;20025;-58
2023/09/17 08:45:41;;;;;;;32.97;27.70;;;;;;;;;;5059606;28;20377;-68
2023/09/17 08:48:07;;;;;;;41.53;33.78;;;;;;;;;;5070908;28;20029;-57
2023/09/17 08:50:33;;;;;;;40.97;31.27;;;;;;;;;;5058698;28;20029;-58
2023/09/17 08:53:01;;;;;;;32.05;27.98;;;;;;;;;;5059196;28;20035;-59
2023/09/17 08:55:26;;;;;;;31.87;28.43;;;;;;;;;;5049345;28;20113;-58
2023/09/17 08:58:00;;;;;;;43.93;33.20;;;;;;;;;;5064029;28;20020;-57
2023/09/17 09:00:26;;;;;;;35.95;30.02;;;;;;;;;;5055747;28;20447;-58
2023/09/17 09:02:54;;;;;;;33.97;30.10;;;;;;;;;;5066503;28;20569;-58
2023/09/17 09:05:22;;;;;;;33.08;28.35;;;;;;;;;;5052038;28;20059;-58
2023/09/17 09:07:47;;;;;;;42.55;32.67;;;;;;;;;;5070984;28;20091;-58
2023/09/17 09:10:14;;;;;;;32.47;28.65;;;;;;;;;;5069917;28;20009;-58
2023/09/17 09:12:39;;;;;;;32.33;28.60;;;;;;;;;;5070205;28;20205;-58
2023/09/17 09:15:05;;;;;;;34.17;27.98;;;;;;;;;;5069459;28;20545;-57
2023/09/17 09:17:30;;;;;;;33.88;29.67;;;;;;;;;;5071243;28;20020;-58
2023/09/17 09:19:56;;;;;;;32.10;28.67;;;;;;;;;;5055524;28;20040;-58
2023/09/17 09:22:22;;;;;;;37.47;29.02;;;;;;;;;;5052353;28;20126;-58
2023/09/17 09:24:48;;;;;;;34.40;29.30;;;;;;;;;;5050868;28;20047;-58
2023/09/17 09:27:13;;;;;;;44.50;32.60;;;;;;;;;;5046764;28;20033;-57
2023/09/17 09:29:42;;;;;;;35.08;29.27;;;;;;;;;;5045053;28;20029;-57
2023/09/17 09:32:09;;;;;;;31.05;27.70;;;;;;;;;;5049019;28;20484;-57
2023/09/17 09:34:34;;;;;;;34.88;31.17;;;;;;;;;;5030352;28;20542;-58
2023/09/17 09:37:02;;;;;;;31.00;27.73;;;;;;;;;;5046218;28;20041;-57
2023/09/17 09:39:27;;;;;;;34.83;31.25;;;;;;;;;;5055744;28;20068;-57
2023/09/17 09:41:53;;;;;;;41.87;32.47;;;;;;;;;;5067850;28;20404;-58
2023/09/17 09:44:18;;;;;;;34.90;30.37;;;;;;;;;;5070598;28;20801;-58
2023/09/17 09:46:44;;;;;;;38.93;32.03;;;;;;;;;;5068578;28;20119;-62
2023/09/17 09:49:09;;;;;;;36.92;33.13;;;;;;;;;;5070381;28;20016;-58
2023/09/17 09:51:35;;;;;;;38.00;31.38;;;;;;;;;;5068988;28;20518;-58
2023/09/17 09:54:01;;;;;;;36.28;31.92;;;;;;;;;;5070512;28;20039;-58
2023/09/17 09:56:27;;;;;;;32.97;29.42;;;;;;;;;;5068610;28;20388;-58
2023/09/17 09:58:53;;;;;;;34.17;28.52;;;;;;;;;;5070944;28;20020;-58
2023/09/17 10:01:19;;;;;;;31.88;25.92;;;;;;;;;;5069158;28;20036;-58
2023/09/17 10:03:44;;;;;;;38.13;26.97;;;;;;;;;;5069450;28;20372;-58
2023/09/17 10:06:09;;;;;;;28.37;25.30;;;;;;;;;;5065111;28;20067;-58
2023/09/17 10:08:37;;;;;;;26.92;24.27;;;;;;;;;;5069880;28;20044;-58
2023/09/17 10:11:03;;;;;;;25.90;22.10;;;;;;;;;;5068033;28;20060;-58
2023/09/17 10:13:28;;;;;;;26.05;22.63;;;;;;;;;;5067424;28;20352;-58
2023/09/17 10:15:53;;;;;;;22.03;19.73;;;;;;;;;;5068211;28;20033;-58
2023/09/17 10:18:19;;;;;;;24.23;21.50;;;;;;;;;;5069585;28;20020;-58
2023/09/17 10:20:45;;;;;;;25.83;21.98;;;;;;;;;;5067702;28;20054;-59
2023/09/17 10:23:11;;;;;;;32.63;23.75;;;;;;;;;;5068866;28;20028;-58
2023/09/17 10:25:37;;;;;;;24.85;21.88;;;;;;;;;;5067914;28;20040;-58
2023/09/17 10:28:02;;;;;;;25.02;22.50;;;;;;;;;;5069473;28;20462;-58
2023/09/17 10:30:27;;;;;;;25.67;20.88;;;;;;;;;;5068486;28;20060;-58
2023/09/17 10:32:53;;;;;;;25.02;21.33;;;;;;;;;;5069350;28;20021;-58
2023/09/17 10:35:19;;;;;;;24.30;21.70;;;;;;;;;;5067816;28;20440;-58
2023/09/17 10:37:46;;;;;;;25.83;22.85;;;;;;;;;;5067383;28;20013;-58
2023/09/17 10:40:12;;;;;;;22.98;20.77;;;;;;;;;;5066775;28;20103;-57
2023/09/17 10:42:38;;;;;;;26.35;23.33;;;;;;;;;;5056904;28;20032;-59
2023/09/17 10:45:07;;;;;;;21.98;19.77;;;;;;;;;;5068160;28;20476;-55
2023/09/17 10:47:33;;;;;;;28.02;22.45;;;;;;;;;;5069669;28;20019;-58
2023/09/17 10:49:58;;;;;;;25.27;22.58;;;;;;;;;;5068148;28;20021;-58
2023/09/17 10:52:24;;;;;;;25.58;21.05;;;;;;;;;;5068087;28;20059;-58
2023/09/17 10:54:49;;;;;;;24.75;22.23;;;;;;;;;;5069619;28;20081;-58
2023/09/17 10:57:18;;;;;;;25.73;23.15;;;;;;;;;;5068227;28;20548;-58
2023/09/17 10:59:44;;;;;;;23.67;21.17;;;;;;;;;;5065843;28;20073;-58
2023/09/17 11:02:10;;;;;;;27.05;23.50;;;;;;;;;;5068270;28;20043;-57
2023/09/17 11:04:36;;;;;;;25.25;22.60;;;;;;;;;;5069107;28;20085;-58
2023/09/17 11:07:03;;;;;;;27.52;23.42;;;;;;;;;;5067954;28;20395;-58
2023/09/17 11:09:28;;;;;;;27.92;25.00;;;;;;;;;;5070091;28;20013;-58
2023/09/17 11:11:53;;;;;;;26.20;23.42;;;;;;;;;;5067495;28;20080;-58
2023/09/17 11:14:19;;;;;;;27.13;24.30;;;;;;;;;;5050272;28;20239;-58
2023/09/17 11:16:47;;;;;;;30.67;25.13;;;;;;;;;;5052778;28;20037;-58
2023/09/17 11:19:16;;;;;;;29.45;26.48;;;;;;;;;;5069800;28;20032;-58
2023/09/17 11:21:43;;;;;;;27.15;23.83;;;;;;;;;;5067582;28;20071;-58
2023/09/17 11:24:12;;;;;;;27.80;25.13;;;;;;;;;;5068407;28;20048;-68
2023/09/17 11:26:39;;;;;;;26.52;23.95;;;;;;;;;;5067865;28;20119;-58
2023/09/17 11:29:08;;;;;;;29.75;23.40;;;;;;;;;;5069461;28;20028;-58
2023/09/17 11:31:57;;;;;;;25.83;23.13;;;;;;;;;;5070172;28;20098;-58
2023/09/17 11:34:22;;;;;;;24.35;20.45;;;;;;;;;;5073490;28;20025;-58
2023/09/17 11:36:48;;;;;;;24.23;21.65;;;;;;;;;;5070399;28;20098;-58
2023/09/17 11:39:20;;;;;;;23.70;21.25;;;;;;;;;;5055448;28;20048;-58
2023/09/17 11:41:48;;;;;;;24.17;21.70;;;;;;;;;;5041030;28;20041;-70
2023/09/17 11:44:14;;;;;;;23.35;19.70;;;;;;;;;;5053234;28;20100;-58
2023/09/17 11:46:40;;;;;;;23.40;20.98;;;;;;;;;;5051853;28;20183;-58
2023/09/17 11:49:08;;;;;;;21.52;19.52;;;;;;;;;;5053542;28;20017;-57
2023/09/17 11:51:34;;;;;;;22.92;20.38;;;;;;;;;;5051513;28;20040;-57
2023/09/17 11:53:59;;;;;;;20.58;18.67;;;;;;;;;;5053533;28;20021;-58
2023/09/17 11:56:29;;;;;;;21.92;19.85;;;;;;;;;;5061498;28;20060;-58
2023/09/17 11:59:00;;;;;;;18.70;16.80;;;;;;;;;;5072755;28;20387;-58
2023/09/17 12:01:28;;;;;;;16.80;14.57;;;;;;;;;;5071808;28;20093;-58
2023/09/17 12:03:53;;;;;;;19.55;17.05;;;;;;;;;;5072290;28;20016;-58
2023/09/17 12:06:20;;;;;;;19.23;17.20;;;;;;;;;;5071357;28;20094;-58
2023/09/17 12:08:45;;;;;;;18.85;15.25;;;;;;;;;;5073220;28;20063;-58
2023/09/17 12:11:21;;;;;;;21.52;14.30;;;;;;;;;;5071463;28;20056;-58
2023/09/17 12:13:46;;;;;;;13.82;12.38;;;;;;;;;;5072761;28;20012;-57
2023/09/17 12:16:12;;;;;;;12.32;11.07;;;;;;;;;;5071721;28;20476;-58
2023/09/17 12:18:37;;;;;;;13.20;10.20;;;;;;;;;;5072796;28;20012;-58
2023/09/17 12:21:07;;;;;;;12.80;9.87;;;;;;;;;;5060835;28;20493;-58
2023/09/17 12:24:14;;;;;;;15.55;9.90;;;;;;;;;;5072645;28;20633;-72
2023/09/17 12:26:46;;;;;;;11.35;10.15;;;;;;;;;;5069849;28;20134;-58
2023/09/17 12:29:11;;;;;;;10.27;9.27;;;;;;;;;;5072733;28;20415;-58
2023/09/17 12:31:37;;;;;;;10.77;8.03;;;;;;;;;;5070969;28;20120;-58
2023/09/17 12:34:03;;;;;;;12.05;9.88;;;;;;;;;;5071530;28;20016;-70
2023/09/17 12:36:28;;;;;;;11.85;10.23;;;;;;;;;;5069354;28;20403;-58
2023/09/17 12:38:53;;;;;;;11.53;9.57;;;;;;;;;;5072320;28;20101;-58
2023/09/17 12:41:18;;;;;;;11.30;9.27;;;;;;;;;;5070642;28;20043;-57
2023/09/17 12:43:44;;;;;;;10.70;9.70;;;;;;;;;;5070760;28;20372;-58
2023/09/17 12:46:09;;;;;;;11.93;10.10;;;;;;;;;;5071289;28;20136;-58
2023/09/17 12:48:34;;;;;;;12.07;10.90;;;;;;;;;;5072359;28;20470;-58
2023/09/17 12:50:59;;;;;;;10.75;9.07;;;;;;;;;;5070748;28;20040;-57
2023/09/17 12:53:25;;;;;;;20.00;12.77;;;;;;;;;;5072150;28;20387;-58
2023/09/17 12:55:50;;;;;;;11.57;10.50;;;;;;;;;;5066147;28;20041;-58
2023/09/17 12:58:17;;;;;;;10.75;9.65;;;;;;;;;;5055795;28;20030;-58
2023/09/17 13:00:42;;;;;;;10.43;9.40;;;;;;;;;;5070698;28;20506;-58
2023/09/17 13:03:11;;;;;;;9.13;8.23;;;;;;;;;;5072234;28;20021;-58
2023/09/17 13:05:36;;;;;;;14.38;8.15;;;;;;;;;;5067568;28;20502;-58
2023/09/17 13:08:05;;;;;;;9.82;8.65;;;;;;;;;;5052223;28;20016;-58
2023/09/17 13:10:30;;;;;;;9.15;8.25;;;;;;;;;;5053457;28;20029;-58
2023/09/17 13:12:55;;;;;;;12.27;8.30;;;;;;;;;;5071296;28;20028;-58
2023/09/17 13:15:20;;;;;;;9.38;6.68;;;;;;;;;;5070574;28;20021;-58
2023/09/17 13:17:46;;;;;;;9.67;5.83;;;;;;;;;;5071449;28;20024;-58
2023/09/17 13:20:12;;;;;;;12.80;8.45;;;;;;;;;;5070125;28;20457;-57
2023/09/17 13:22:37;;;;;;;8.65;7.68;;;;;;;;;;5071445;28;20037;-58
2023/09/17 13:25:02;;;;;;;9.70;7.32;;;;;;;;;;5072135;28;20017;-58
2023/09/17 13:27:29;;;;;;;9.93;8.07;;;;;;;;;;5070150;28;20438;-58
2023/09/17 13:29:56;;;;;;;10.32;8.30;;;;;;;;;;5071506;28;20008;-58
2023/09/17 13:32:21;;;;;;;9.65;6.80;;;;;;;;;;5069822;28;20037;-59
2023/09/17 13:34:47;;;;;;;9.60;8.45;;;;;;;;;;5071359;28;20027;-58
2023/09/17 13:37:13;;;;;;;11.15;6.70;;;;;;;;;;5069385;28;20407;-58
2023/09/17 13:39:39;;;;;;;9.50;6.20;;;;;;;;;;5069492;28;20145;-58
2023/09/17 13:42:04;;;;;;;8.52;6.72;;;;;;;;;;5069534;28;20403;-58
2023/09/17 13:44:29;;;;;;;7.70;5.97;;;;;;;;;;5071196;28;20021;-58
2023/09/17 13:46:55;;;;;;;5.88;5.38;;;;;;;;;;5069414;28;20086;-58
2023/09/17 13:49:21;;;;;;;8.98;6.80;;;;;;;;;;5070030;28;20023;-59
2023/09/17 13:51:46;;;;;;;9.40;5.97;;;;;;;;;;5068970;28;20036;-58
2023/09/17 13:54:11;;;;;;;10.35;6.22;;;;;;;;;;5070979;28;20027;-58
2023/09/17 13:56:36;;;;;;;5.50;4.97;;;;;;;;;;5069245;28;20106;-57
2023/09/17 13:59:01;;;;;;;11.40;5.47;;;;;;;;;;5070895;28;20031;-58
2023/09/17 14:01:27;;;;;;;5.87;4.87;;;;;;;;;;5068126;28;20032;-57
2023/09/17 14:03:52;;;;;;;10.47;5.93;;;;;;;;;;5070570;28;20024;-57
2023/09/17 14:06:17;;;;;;;8.38;5.60;;;;;;;;;;5068819;28;20036;-58
2023/09/17 14:08:42;;;;;;;9.65;5.55;;;;;;;;;;5070685;28;20028;-57
2023/09/17 14:11:07;;;;;;;11.73;7.03;;;;;;;;;;5067662;28;20037;-57
2023/09/17 14:13:35;;;;;;;8.27;4.60;;;;;;;;;;5070452;28;20043;-58